sensor_id;sensor_type;location;lat;lon;timestamp;P1;durP1;ratioP1;P2;durP2;ratioP2
25497;SDS011;13406;53.380;7.226;2024-03-02T00:01:58;14.37;;;7.60;;
25497;SDS011;13406;53.380;7.226;2024-03-02T00:04:23;11.40;;;7.57;;
25497;SDS011;13406;53.380;7.226;2024-03-02T00:06:51;11.53;;;8.13;;
25497;SDS011;13406;53.380;7.226;2024-03-02T00:09:17;10.43;;;7.13;;
25497;SDS011;13406;53.380;7.226;2024-03-02T00:11:43;11.40;;;7.60;;
25497;SDS011;13406;53.380;7.226;2024-03-02T00:14:09;13.30;;;7.17;;
25497;SDS011;13406;53.380;7.226;2024-03-02T00:16:34;12.07;;;8.03;;
25497;SDS011;13406;53.380;7.226;2024-03-02T00:19:05;11.60;;;7.53;;
25497;SDS011;13406;53.380;7.226;2024-03-02T00:21:32;11.60;;;7.47;;
25497;SDS011;13406;53.380;7.226;2024-03-02T00:23:58;11.57;;;7.47;;
25497;SDS011;13406;53.380;7.226;2024-03-02T00:26:24;11.70;;;7.17;;
25497;SDS011;13406;53.380;7.226;2024-03-02T00:28:50;13.37;;;8.00;;
25497;SDS011;13406;53.380;7.226;2024-03-02T00:31:21;10.70;;;6.90;;
25497;SDS011;13406;53.380;7.226;2024-03-02T00:33:48;15.50;;;7.53;;
25497;SDS011;13406;53.380;7.226;2024-03-02T00:36:15;12.03;;;7.27;;
25497;SDS011;13406;53.380;7.226;2024-03-02T00:41:15;11.60;;;6.80;;
25497;SDS011;13406;53.380;7.226;2024-03-02T00:43:49;10.60;;;6.70;;
25497;SDS011;13406;53.380;7.226;2024-03-02T00:46:37;11.33;;;6.97;;
25497;SDS011;13406;53.380;7.226;2024-03-02T00:49:05;10.60;;;6.63;;
25497;SDS011;13406;53.380;7.226;2024-03-02T00:51:53;10.87;;;6.30;;
25497;SDS011;13406;53.380;7.226;2024-03-02T00:54:20;13.53;;;7.27;;
25497;SDS011;13406;53.380;7.226;2024-03-02T00:56:48;11.80;;;7.07;;
25497;SDS011;13406;53.380;7.226;2024-03-02T00:59:14;11.23;;;7.40;;
25497;SDS011;13406;53.380;7.226;2024-03-02T01:01:40;10.77;;;6.63;;
25497;SDS011;13406;53.380;7.226;2024-03-02T01:04:05;12.07;;;6.77;;
25497;SDS011;13406;53.380;7.226;2024-03-02T01:06:30;11.47;;;6.87;;
25497;SDS011;13406;53.380;7.226;2024-03-02T01:08:56;9.13;;;5.87;;
25497;SDS011;13406;53.380;7.226;2024-03-02T01:11:21;10.40;;;6.20;;
25497;SDS011;13406;53.380;7.226;2024-03-02T01:13:47;11.20;;;6.90;;
25497;SDS011;13406;53.380;7.226;2024-03-02T01:16:13;10.73;;;6.27;;
25497;SDS011;13406;53.380;7.226;2024-03-02T01:18:39;10.67;;;6.17;;
25497;SDS011;13406;53.380;7.226;2024-03-02T01:21:04;10.13;;;6.10;;
25497;SDS011;13406;53.380;7.226;2024-03-02T01:23:30;9.67;;;5.87;;
25497;SDS011;13406;53.380;7.226;2024-03-02T01:25:55;9.67;;;5.57;;
25497;SDS011;13406;53.380;7.226;2024-03-02T01:28:21;9.70;;;6.03;;
25497;SDS011;13406;53.380;7.226;2024-03-02T01:30:46;9.60;;;5.90;;
25497;SDS011;13406;53.380;7.226;2024-03-02T01:33:12;10.23;;;6.00;;
25497;SDS011;13406;53.380;7.226;2024-03-02T01:35:38;10.20;;;5.40;;
25497;SDS011;13406;53.380;7.226;2024-03-02T01:38:04;10.43;;;5.63;;
25497;SDS011;13406;53.380;7.226;2024-03-02T01:40:35;10.50;;;5.80;;
25497;SDS011;13406;53.380;7.226;2024-03-02T01:43:01;9.07;;;5.60;;
25497;SDS011;13406;53.380;7.226;2024-03-02T01:45:28;8.97;;;5.60;;
25497;SDS011;13406;53.380;7.226;2024-03-02T01:47:54;10.60;;;6.50;;
25497;SDS011;13406;53.380;7.226;2024-03-02T01:50:29;9.23;;;5.67;;
25497;SDS011;13406;53.380;7.226;2024-03-02T01:52:57;10.50;;;5.70;;
25497;SDS011;13406;53.380;7.226;2024-03-02T01:55:23;9.10;;;5.20;;
25497;SDS011;13406;53.380;7.226;2024-03-02T01:57:49;9.20;;;5.30;;
25497;SDS011;13406;53.380;7.226;2024-03-02T02:00:21;10.47;;;5.40;;
25497;SDS011;13406;53.380;7.226;2024-03-02T02:02:46;9.80;;;6.33;;
25497;SDS011;13406;53.380;7.226;2024-03-02T02:05:13;9.43;;;5.33;;
25497;SDS011;13406;53.380;7.226;2024-03-02T02:07:40;9.50;;;5.13;;
25497;SDS011;13406;53.380;7.226;2024-03-02T02:10:06;8.57;;;4.57;;
25497;SDS011;13406;53.380;7.226;2024-03-02T02:12:32;10.60;;;5.30;;
25497;SDS011;13406;53.380;7.226;2024-03-02T02:14:58;9.40;;;4.77;;
25497;SDS011;13406;53.380;7.226;2024-03-02T02:17:23;10.50;;;5.47;;
25497;SDS011;13406;53.380;7.226;2024-03-02T02:19:49;8.50;;;5.00;;
25497;SDS011;13406;53.380;7.226;2024-03-02T02:22:14;7.83;;;4.83;;
25497;SDS011;13406;53.380;7.226;2024-03-02T02:24:40;8.53;;;4.90;;
25497;SDS011;13406;53.380;7.226;2024-03-02T02:27:09;9.50;;;5.07;;
25497;SDS011;13406;53.380;7.226;2024-03-02T02:29:35;8.37;;;4.80;;
25497;SDS011;13406;53.380;7.226;2024-03-02T02:32:01;7.70;;;4.50;;
25497;SDS011;13406;53.380;7.226;2024-03-02T02:34:26;11.40;;;5.00;;
25497;SDS011;13406;53.380;7.226;2024-03-02T02:36:52;8.70;;;4.70;;
25497;SDS011;13406;53.380;7.226;2024-03-02T02:39:18;8.37;;;4.77;;
25497;SDS011;13406;53.380;7.226;2024-03-02T02:41:47;9.40;;;4.20;;
25497;SDS011;13406;53.380;7.226;2024-03-02T02:44:13;8.20;;;4.50;;
25497;SDS011;13406;53.380;7.226;2024-03-02T02:46:39;9.90;;;4.80;;
25497;SDS011;13406;53.380;7.226;2024-03-02T02:49:05;9.20;;;4.80;;
25497;SDS011;13406;53.380;7.226;2024-03-02T02:51:31;8.00;;;4.40;;
25497;SDS011;13406;53.380;7.226;2024-03-02T02:53:56;8.33;;;4.03;;
25497;SDS011;13406;53.380;7.226;2024-03-02T02:56:21;8.00;;;4.27;;
25497;SDS011;13406;53.380;7.226;2024-03-02T02:58:47;8.40;;;3.83;;
25497;SDS011;13406;53.380;7.226;2024-03-02T03:01:13;7.80;;;4.00;;
25497;SDS011;13406;53.380;7.226;2024-03-02T03:03:38;8.03;;;4.60;;
25497;SDS011;13406;53.380;7.226;2024-03-02T03:06:04;7.97;;;3.57;;
25497;SDS011;13406;53.380;7.226;2024-03-02T03:08:29;8.83;;;4.10;;
25497;SDS011;13406;53.380;7.226;2024-03-02T03:10:55;8.17;;;4.40;;
25497;SDS011;13406;53.380;7.226;2024-03-02T03:13:20;9.03;;;4.33;;
25497;SDS011;13406;53.380;7.226;2024-03-02T03:15:45;7.47;;;4.00;;
25497;SDS011;13406;53.380;7.226;2024-03-02T03:18:11;7.73;;;4.27;;
25497;SDS011;13406;53.380;7.226;2024-03-02T03:20:36;6.80;;;3.70;;
25497;SDS011;13406;53.380;7.226;2024-03-02T03:23:02;6.77;;;3.90;;
25497;SDS011;13406;53.380;7.226;2024-03-02T03:25:29;7.10;;;3.57;;
25497;SDS011;13406;53.380;7.226;2024-03-02T03:27:54;8.27;;;3.73;;
25497;SDS011;13406;53.380;7.226;2024-03-02T03:30:20;7.40;;;3.40;;
25497;SDS011;13406;53.380;7.226;2024-03-02T03:32:45;7.30;;;3.70;;
25497;SDS011;13406;53.380;7.226;2024-03-02T03:35:13;6.20;;;3.37;;
25497;SDS011;13406;53.380;7.226;2024-03-02T03:37:40;7.10;;;3.70;;
25497;SDS011;13406;53.380;7.226;2024-03-02T03:40:05;6.83;;;3.30;;
25497;SDS011;13406;53.380;7.226;2024-03-02T03:42:35;6.97;;;3.23;;
25497;SDS011;13406;53.380;7.226;2024-03-02T03:45:00;6.90;;;3.53;;
25497;SDS011;13406;53.380;7.226;2024-03-02T03:47:26;7.67;;;3.87;;
25497;SDS011;13406;53.380;7.226;2024-03-02T03:49:51;7.37;;;3.57;;
25497;SDS011;13406;53.380;7.226;2024-03-02T03:52:17;9.93;;;4.00;;
25497;SDS011;13406;53.380;7.226;2024-03-02T03:54:42;7.07;;;3.77;;
25497;SDS011;13406;53.380;7.226;2024-03-02T03:57:09;6.80;;;3.40;;
25497;SDS011;13406;53.380;7.226;2024-03-02T03:59:35;7.17;;;3.60;;
25497;SDS011;13406;53.380;7.226;2024-03-02T04:02:02;6.77;;;3.47;;
25497;SDS011;13406;53.380;7.226;2024-03-02T04:04:28;9.03;;;3.17;;
25497;SDS011;13406;53.380;7.226;2024-03-02T04:06:54;7.33;;;3.57;;
25497;SDS011;13406;53.380;7.226;2024-03-02T04:09:19;7.53;;;3.70;;
25497;SDS011;13406;53.380;7.226;2024-03-02T04:11:44;6.20;;;3.00;;
25497;SDS011;13406;53.380;7.226;2024-03-02T04:14:10;6.63;;;3.10;;
25497;SDS011;13406;53.380;7.226;2024-03-02T04:16:37;7.40;;;2.83;;
25497;SDS011;13406;53.380;7.226;2024-03-02T04:19:02;6.77;;;3.60;;
25497;SDS011;13406;53.380;7.226;2024-03-02T04:21:28;7.17;;;3.27;;
25497;SDS011;13406;53.380;7.226;2024-03-02T04:23:55;7.47;;;3.67;;
25497;SDS011;13406;53.380;7.226;2024-03-02T04:26:24;7.10;;;3.70;;
25497;SDS011;13406;53.380;7.226;2024-03-02T04:28:50;7.97;;;3.33;;
25497;SDS011;13406;53.380;7.226;2024-03-02T04:31:16;6.40;;;3.50;;
25497;SDS011;13406;53.380;7.226;2024-03-02T04:33:42;6.63;;;3.63;;
25497;SDS011;13406;53.380;7.226;2024-03-02T04:36:07;7.70;;;3.90;;
25497;SDS011;13406;53.380;7.226;2024-03-02T04:38:36;7.30;;;3.40;;
25497;SDS011;13406;53.380;7.226;2024-03-02T04:41:02;8.53;;;3.40;;
25497;SDS011;13406;53.380;7.226;2024-03-02T04:43:28;6.77;;;3.77;;
25497;SDS011;13406;53.380;7.226;2024-03-02T04:45:54;7.33;;;3.43;;
25497;SDS011;13406;53.380;7.226;2024-03-02T04:48:19;6.97;;;3.50;;
25497;SDS011;13406;53.380;7.226;2024-03-02T04:50:44;6.23;;;2.77;;
25497;SDS011;13406;53.380;7.226;2024-03-02T04:53:10;6.40;;;3.20;;
25497;SDS011;13406;53.380;7.226;2024-03-02T04:55:38;7.33;;;4.03;;
25497;SDS011;13406;53.380;7.226;2024-03-02T04:58:06;7.83;;;3.10;;
25497;SDS011;13406;53.380;7.226;2024-03-02T05:00:32;7.93;;;3.70;;
25497;SDS011;13406;53.380;7.226;2024-03-02T05:02:57;6.17;;;3.27;;
25497;SDS011;13406;53.380;7.226;2024-03-02T05:05:23;6.20;;;3.53;;
25497;SDS011;13406;53.380;7.226;2024-03-02T05:07:48;7.50;;;3.50;;
25497;SDS011;13406;53.380;7.226;2024-03-02T05:10:14;7.80;;;4.10;;
25497;SDS011;13406;53.380;7.226;2024-03-02T05:12:39;6.40;;;2.63;;
25497;SDS011;13406;53.380;7.226;2024-03-02T05:15:08;7.03;;;3.07;;
25497;SDS011;13406;53.380;7.226;2024-03-02T05:17:35;6.83;;;3.30;;
25497;SDS011;13406;53.380;7.226;2024-03-02T05:20:05;10.20;;;3.60;;
25497;SDS011;13406;53.380;7.226;2024-03-02T05:22:31;8.00;;;3.30;;
25497;SDS011;13406;53.380;7.226;2024-03-02T05:24:58;6.63;;;3.60;;
25497;SDS011;13406;53.380;7.226;2024-03-02T05:27:25;7.77;;;4.10;;
25497;SDS011;13406;53.380;7.226;2024-03-02T05:29:50;7.43;;;3.60;;
25497;SDS011;13406;53.380;7.226;2024-03-02T05:32:15;6.17;;;3.30;;
25497;SDS011;13406;53.380;7.226;2024-03-02T05:34:41;8.53;;;4.10;;
25497;SDS011;13406;53.380;7.226;2024-03-02T05:37:06;7.30;;;4.00;;
25497;SDS011;13406;53.380;7.226;2024-03-02T05:39:32;7.07;;;3.70;;
25497;SDS011;13406;53.380;7.226;2024-03-02T05:41:57;8.00;;;3.93;;
25497;SDS011;13406;53.380;7.226;2024-03-02T05:44:23;7.63;;;4.00;;
25497;SDS011;13406;53.380;7.226;2024-03-02T05:46:48;7.53;;;4.57;;
25497;SDS011;13406;53.380;7.226;2024-03-02T05:49:14;7.60;;;3.77;;
25497;SDS011;13406;53.380;7.226;2024-03-02T05:51:39;7.87;;;4.60;;
25497;SDS011;13406;53.380;7.226;2024-03-02T05:54:04;8.57;;;3.67;;
25497;SDS011;13406;53.380;7.226;2024-03-02T05:56:30;7.87;;;3.97;;
25497;SDS011;13406;53.380;7.226;2024-03-02T05:58:55;7.33;;;4.13;;
25497;SDS011;13406;53.380;7.226;2024-03-02T06:01:40;8.40;;;4.03;;
25497;SDS011;13406;53.380;7.226;2024-03-02T06:04:08;8.20;;;4.37;;
25497;SDS011;13406;53.380;7.226;2024-03-02T06:06:33;8.30;;;4.30;;
25497;SDS011;13406;53.380;7.226;2024-03-02T06:09:02;9.00;;;5.50;;
25497;SDS011;13406;53.380;7.226;2024-03-02T06:11:32;8.00;;;4.50;;
25497;SDS011;13406;53.380;7.226;2024-03-02T06:14:01;9.30;;;4.87;;
25497;SDS011;13406;53.380;7.226;2024-03-02T06:16:27;8.20;;;4.40;;
25497;SDS011;13406;53.380;7.226;2024-03-02T06:18:52;8.90;;;5.40;;
25497;SDS011;13406;53.380;7.226;2024-03-02T06:21:19;8.07;;;4.90;;
25497;SDS011;13406;53.380;7.226;2024-03-02T06:23:45;9.77;;;5.70;;
25497;SDS011;13406;53.380;7.226;2024-03-02T06:26:11;9.03;;;5.67;;
25497;SDS011;13406;53.380;7.226;2024-03-02T06:28:36;8.63;;;5.10;;
25497;SDS011;13406;53.380;7.226;2024-03-02T06:31:02;8.97;;;5.20;;
25497;SDS011;13406;53.380;7.226;2024-03-02T06:33:27;7.87;;;4.60;;
25497;SDS011;13406;53.380;7.226;2024-03-02T06:35:53;9.13;;;4.87;;
25497;SDS011;13406;53.380;7.226;2024-03-02T06:38:19;8.90;;;5.37;;
25497;SDS011;13406;53.380;7.226;2024-03-02T06:40:44;10.30;;;5.70;;
25497;SDS011;13406;53.380;7.226;2024-03-02T06:43:10;10.00;;;5.83;;
25497;SDS011;13406;53.380;7.226;2024-03-02T06:45:35;11.40;;;5.57;;
25497;SDS011;13406;53.380;7.226;2024-03-02T06:48:01;8.40;;;5.07;;
25497;SDS011;13406;53.380;7.226;2024-03-02T06:50:26;9.83;;;5.90;;
25497;SDS011;13406;53.380;7.226;2024-03-02T06:52:52;9.83;;;5.40;;
25497;SDS011;13406;53.380;7.226;2024-03-02T06:55:17;10.47;;;5.60;;
25497;SDS011;13406;53.380;7.226;2024-03-02T06:57:42;8.23;;;5.03;;
25497;SDS011;13406;53.380;7.226;2024-03-02T07:00:08;9.27;;;5.50;;
25497;SDS011;13406;53.380;7.226;2024-03-02T07:02:34;10.07;;;5.90;;
25497;SDS011;13406;53.380;7.226;2024-03-02T07:05:01;9.93;;;5.87;;
25497;SDS011;13406;53.380;7.226;2024-03-02T07:07:27;9.23;;;5.33;;
25497;SDS011;13406;53.380;7.226;2024-03-02T07:09:52;9.93;;;6.07;;
25497;SDS011;13406;53.380;7.226;2024-03-02T07:12:18;8.57;;;5.37;;
25497;SDS011;13406;53.380;7.226;2024-03-02T07:14:43;8.27;;;4.87;;
25497;SDS011;13406;53.380;7.226;2024-03-02T07:17:27;9.70;;;5.73;;
25497;SDS011;13406;53.380;7.226;2024-03-02T07:19:53;8.47;;;4.80;;
25497;SDS011;13406;53.380;7.226;2024-03-02T07:22:18;9.30;;;5.33;;
25497;SDS011;13406;53.380;7.226;2024-03-02T07:24:44;9.77;;;5.70;;
25497;SDS011;13406;53.380;7.226;2024-03-02T07:27:11;12.00;;;5.13;;
25497;SDS011;13406;53.380;7.226;2024-03-02T07:29:37;8.80;;;5.20;;
25497;SDS011;13406;53.380;7.226;2024-03-02T07:32:03;8.20;;;5.00;;
25497;SDS011;13406;53.380;7.226;2024-03-02T07:34:29;8.63;;;4.90;;
25497;SDS011;13406;53.380;7.226;2024-03-02T07:36:55;8.80;;;5.37;;
25497;SDS011;13406;53.380;7.226;2024-03-02T07:39:20;9.63;;;5.23;;
25497;SDS011;13406;53.380;7.226;2024-03-02T07:41:46;9.43;;;5.43;;
25497;SDS011;13406;53.380;7.226;2024-03-02T07:44:12;7.90;;;4.80;;
25497;SDS011;13406;53.380;7.226;2024-03-02T07:46:44;9.37;;;5.63;;
25497;SDS011;13406;53.380;7.226;2024-03-02T07:49:16;8.50;;;5.07;;
25497;SDS011;13406;53.380;7.226;2024-03-02T07:51:43;8.90;;;5.10;;
25497;SDS011;13406;53.380;7.226;2024-03-02T07:54:08;12.43;;;5.30;;
25497;SDS011;13406;53.380;7.226;2024-03-02T07:56:34;10.60;;;5.60;;
25497;SDS011;13406;53.380;7.226;2024-03-02T07:59:00;10.47;;;5.77;;
25497;SDS011;13406;53.380;7.226;2024-03-02T08:01:27;9.47;;;5.67;;
25497;SDS011;13406;53.380;7.226;2024-03-02T08:03:55;9.53;;;5.37;;
25497;SDS011;13406;53.380;7.226;2024-03-02T08:06:23;9.70;;;5.60;;
25497;SDS011;13406;53.380;7.226;2024-03-02T08:08:55;15.70;;;5.53;;
25497;SDS011;13406;53.380;7.226;2024-03-02T08:11:22;10.70;;;5.10;;
25497;SDS011;13406;53.380;7.226;2024-03-02T08:13:47;8.53;;;4.87;;
25497;SDS011;13406;53.380;7.226;2024-03-02T08:16:14;8.70;;;4.90;;
25497;SDS011;13406;53.380;7.226;2024-03-02T08:18:40;7.93;;;4.43;;
25497;SDS011;13406;53.380;7.226;2024-03-02T08:21:06;10.30;;;5.67;;
25497;SDS011;13406;53.380;7.226;2024-03-02T08:23:33;8.80;;;5.40;;
25497;SDS011;13406;53.380;7.226;2024-03-02T08:25:59;10.50;;;4.87;;
25497;SDS011;13406;53.380;7.226;2024-03-02T08:28:24;8.57;;;5.10;;
25497;SDS011;13406;53.380;7.226;2024-03-02T08:30:50;9.50;;;6.33;;
25497;SDS011;13406;53.380;7.226;2024-03-02T08:33:15;8.47;;;4.80;;
25497;SDS011;13406;53.380;7.226;2024-03-02T08:35:41;8.57;;;4.83;;
25497;SDS011;13406;53.380;7.226;2024-03-02T08:38:06;7.47;;;4.40;;
25497;SDS011;13406;53.380;7.226;2024-03-02T08:40:31;7.93;;;4.53;;
25497;SDS011;13406;53.380;7.226;2024-03-02T08:42:57;9.20;;;5.47;;
25497;SDS011;13406;53.380;7.226;2024-03-02T08:45:22;10.13;;;5.53;;
25497;SDS011;13406;53.380;7.226;2024-03-02T08:47:48;8.33;;;4.60;;
25497;SDS011;13406;53.380;7.226;2024-03-02T08:50:13;9.23;;;4.90;;
25497;SDS011;13406;53.380;7.226;2024-03-02T08:52:39;11.17;;;4.40;;
25497;SDS011;13406;53.380;7.226;2024-03-02T08:55:05;8.90;;;4.10;;
25497;SDS011;13406;53.380;7.226;2024-03-02T08:57:32;11.70;;;5.10;;
25497;SDS011;13406;53.380;7.226;2024-03-02T08:59:57;9.37;;;5.13;;
25497;SDS011;13406;53.380;7.226;2024-03-02T09:02:23;9.60;;;5.40;;
25497;SDS011;13406;53.380;7.226;2024-03-02T09:04:49;8.30;;;4.90;;
25497;SDS011;13406;53.380;7.226;2024-03-02T09:07:14;7.80;;;4.50;;
25497;SDS011;13406;53.380;7.226;2024-03-02T09:09:40;10.00;;;4.80;;
25497;SDS011;13406;53.380;7.226;2024-03-02T09:12:06;9.17;;;4.57;;
25497;SDS011;13406;53.380;7.226;2024-03-02T09:14:32;8.70;;;4.63;;
25497;SDS011;13406;53.380;7.226;2024-03-02T09:16:57;8.57;;;4.30;;
25497;SDS011;13406;53.380;7.226;2024-03-02T09:19:23;9.17;;;4.63;;
25497;SDS011;13406;53.380;7.226;2024-03-02T09:21:48;8.23;;;4.40;;
25497;SDS011;13406;53.380;7.226;2024-03-02T09:24:15;8.97;;;5.17;;
25497;SDS011;13406;53.380;7.226;2024-03-02T09:26:40;9.50;;;4.30;;
25497;SDS011;13406;53.380;7.226;2024-03-02T09:29:06;11.93;;;5.10;;
25497;SDS011;13406;53.380;7.226;2024-03-02T09:31:31;7.23;;;3.80;;
25497;SDS011;13406;53.380;7.226;2024-03-02T09:33:57;9.17;;;4.67;;
25497;SDS011;13406;53.380;7.226;2024-03-02T09:36:22;7.37;;;4.20;;
25497;SDS011;13406;53.380;7.226;2024-03-02T09:38:51;7.27;;;3.70;;
25497;SDS011;13406;53.380;7.226;2024-03-02T09:41:17;8.80;;;4.17;;
25497;SDS011;13406;53.380;7.226;2024-03-02T09:43:42;9.43;;;4.20;;
25497;SDS011;13406;53.380;7.226;2024-03-02T09:46:09;7.00;;;3.87;;
25497;SDS011;13406;53.380;7.226;2024-03-02T09:48:35;8.73;;;4.30;;
25497;SDS011;13406;53.380;7.226;2024-03-02T09:51:01;9.10;;;4.83;;
25497;SDS011;13406;53.380;7.226;2024-03-02T09:53:31;9.97;;;3.83;;
25497;SDS011;13406;53.380;7.226;2024-03-02T09:56:01;7.37;;;3.80;;
25497;SDS011;13406;53.380;7.226;2024-03-02T09:58:26;6.60;;;3.70;;
25497;SDS011;13406;53.380;7.226;2024-03-02T10:00:52;7.77;;;3.80;;
25497;SDS011;13406;53.380;7.226;2024-03-02T10:03:20;6.80;;;3.63;;
25497;SDS011;13406;53.380;7.226;2024-03-02T10:05:48;7.90;;;3.67;;
25497;SDS011;13406;53.380;7.226;2024-03-02T10:08:13;8.27;;;3.70;;
25497;SDS011;13406;53.380;7.226;2024-03-02T10:10:39;7.30;;;2.80;;
25497;SDS011;13406;53.380;7.226;2024-03-02T10:13:07;6.20;;;2.50;;
25497;SDS011;13406;53.380;7.226;2024-03-02T10:15:34;5.83;;;2.60;;
25497;SDS011;13406;53.380;7.226;2024-03-02T10:18:00;7.87;;;2.70;;
25497;SDS011;13406;53.380;7.226;2024-03-02T10:20:26;6.63;;;2.40;;
25497;SDS011;13406;53.380;7.226;2024-03-02T10:23:09;6.80;;;2.47;;
25497;SDS011;13406;53.380;7.226;2024-03-02T10:25:38;6.17;;;2.43;;
25497;SDS011;13406;53.380;7.226;2024-03-02T10:28:04;7.63;;;2.40;;
25497;SDS011;13406;53.380;7.226;2024-03-02T10:30:31;5.80;;;2.00;;
25497;SDS011;13406;53.380;7.226;2024-03-02T10:32:56;6.33;;;2.00;;
25497;SDS011;13406;53.380;7.226;2024-03-02T10:35:22;4.70;;;1.33;;
25497;SDS011;13406;53.380;7.226;2024-03-02T10:37:48;6.37;;;1.57;;
25497;SDS011;13406;53.380;7.226;2024-03-02T10:40:14;5.13;;;1.87;;
25497;SDS011;13406;53.380;7.226;2024-03-02T10:42:41;5.53;;;1.80;;
25497;SDS011;13406;53.380;7.226;2024-03-02T10:45:09;6.07;;;2.10;;
25497;SDS011;13406;53.380;7.226;2024-03-02T10:47:36;7.43;;;2.57;;
25497;SDS011;13406;53.380;7.226;2024-03-02T10:50:04;5.70;;;2.40;;
25497;SDS011;13406;53.380;7.226;2024-03-02T10:52:39;7.57;;;2.60;;
25497;SDS011;13406;53.380;7.226;2024-03-02T10:55:08;6.03;;;2.03;;
25497;SDS011;13406;53.380;7.226;2024-03-02T10:57:50;7.63;;;2.87;;
25497;SDS011;13406;53.380;7.226;2024-03-02T11:00:18;6.53;;;2.30;;
25497;SDS011;13406;53.380;7.226;2024-03-02T11:02:56;7.10;;;2.20;;
25497;SDS011;13406;53.380;7.226;2024-03-02T11:05:26;6.53;;;2.43;;
25497;SDS011;13406;53.380;7.226;2024-03-02T11:07:57;6.37;;;1.90;;
25497;SDS011;13406;53.380;7.226;2024-03-02T11:10:28;5.80;;;1.60;;
25497;SDS011;13406;53.380;7.226;2024-03-02T11:13:02;5.00;;;1.47;;
25497;SDS011;13406;53.380;7.226;2024-03-02T11:15:30;5.03;;;1.50;;
25497;SDS011;13406;53.380;7.226;2024-03-02T11:17:58;5.33;;;1.50;;
25497;SDS011;13406;53.380;7.226;2024-03-02T11:20:24;5.93;;;1.70;;
25497;SDS011;13406;53.380;7.226;2024-03-02T11:22:50;5.37;;;1.50;;
25497;SDS011;13406;53.380;7.226;2024-03-02T11:25:26;7.20;;;1.80;;
25497;SDS011;13406;53.380;7.226;2024-03-02T11:32:59;6.90;;;1.90;;
25497;SDS011;13406;53.380;7.226;2024-03-02T11:35:25;5.60;;;2.40;;
25497;SDS011;13406;53.380;7.226;2024-03-02T11:37:51;7.70;;;3.23;;
25497;SDS011;13406;53.380;7.226;2024-03-02T11:40:23;6.30;;;2.90;;
25497;SDS011;13406;53.380;7.226;2024-03-02T11:42:50;10.57;;;2.63;;
25497;SDS011;13406;53.380;7.226;2024-03-02T11:45:22;6.73;;;2.80;;
25497;SDS011;13406;53.380;7.226;2024-03-02T11:47:55;11.37;;;3.00;;
25497;SDS011;13406;53.380;7.226;2024-03-02T11:50:29;6.77;;;2.87;;
25497;SDS011;13406;53.380;7.226;2024-03-02T11:53:02;7.47;;;3.20;;
25497;SDS011;13406;53.380;7.226;2024-03-02T11:55:36;6.53;;;2.60;;
25497;SDS011;13406;53.380;7.226;2024-03-02T11:58:05;6.10;;;2.53;;
25497;SDS011;13406;53.380;7.226;2024-03-02T12:00:31;7.80;;;2.57;;
25497;SDS011;13406;53.380;7.226;2024-03-02T12:03:07;8.00;;;2.90;;
25497;SDS011;13406;53.380;7.226;2024-03-02T12:05:33;7.10;;;2.93;;
25497;SDS011;13406;53.380;7.226;2024-03-02T12:08:01;8.70;;;2.67;;
25497;SDS011;13406;53.380;7.226;2024-03-02T12:10:28;6.07;;;2.70;;
25497;SDS011;13406;53.380;7.226;2024-03-02T12:15:26;6.57;;;2.50;;
25497;SDS011;13406;53.380;7.226;2024-03-02T12:17:55;6.03;;;2.60;;
25497;SDS011;13406;53.380;7.226;2024-03-02T12:20:22;6.50;;;2.23;;
25497;SDS011;13406;53.380;7.226;2024-03-02T12:22:58;6.20;;;2.03;;
25497;SDS011;13406;53.380;7.226;2024-03-02T12:25:25;7.13;;;1.97;;
25497;SDS011;13406;53.380;7.226;2024-03-02T12:27:53;5.03;;;1.57;;
25497;SDS011;13406;53.380;7.226;2024-03-02T12:30:21;8.90;;;2.10;;
25497;SDS011;13406;53.380;7.226;2024-03-02T12:32:47;7.13;;;1.90;;
25497;SDS011;13406;53.380;7.226;2024-03-02T12:35:13;5.53;;;1.70;;
25497;SDS011;13406;53.380;7.226;2024-03-02T12:37:45;6.53;;;1.50;;
25497;SDS011;13406;53.380;7.226;2024-03-02T12:40:15;6.43;;;1.67;;
25497;SDS011;13406;53.380;7.226;2024-03-02T12:42:45;9.10;;;1.63;;
25497;SDS011;13406;53.380;7.226;2024-03-02T12:45:12;9.30;;;1.90;;
25497;SDS011;13406;53.380;7.226;2024-03-02T12:47:39;5.27;;;1.47;;
25497;SDS011;13406;53.380;7.226;2024-03-02T12:50:06;6.30;;;1.97;;
25497;SDS011;13406;53.380;7.226;2024-03-02T12:52:32;7.07;;;1.50;;
25497;SDS011;13406;53.380;7.226;2024-03-02T12:55:03;6.40;;;2.00;;
25497;SDS011;13406;53.380;7.226;2024-03-02T12:57:31;5.40;;;1.50;;
25497;SDS011;13406;53.380;7.226;2024-03-02T12:59:58;5.00;;;1.50;;
25497;SDS011;13406;53.380;7.226;2024-03-02T13:02:27;6.87;;;2.13;;
25497;SDS011;13406;53.380;7.226;2024-03-02T13:04:53;8.73;;;2.07;;
25497;SDS011;13406;53.380;7.226;2024-03-02T13:07:19;5.27;;;1.40;;
25497;SDS011;13406;53.380;7.226;2024-03-02T13:09:47;6.13;;;1.70;;
25497;SDS011;13406;53.380;7.226;2024-03-02T13:12:15;6.43;;;1.73;;
25497;SDS011;13406;53.380;7.226;2024-03-02T13:14:41;7.63;;;2.10;;
25497;SDS011;13406;53.380;7.226;2024-03-02T13:17:10;6.80;;;1.90;;
25497;SDS011;13406;53.380;7.226;2024-03-02T13:19:42;6.70;;;1.73;;
25497;SDS011;13406;53.380;7.226;2024-03-02T13:22:15;7.87;;;2.40;;
25497;SDS011;13406;53.380;7.226;2024-03-02T13:24:40;7.07;;;1.70;;
25497;SDS011;13406;53.380;7.226;2024-03-02T13:27:07;5.63;;;1.60;;
25497;SDS011;13406;53.380;7.226;2024-03-02T13:29:33;6.27;;;2.10;;
25497;SDS011;13406;53.380;7.226;2024-03-02T13:31:59;8.60;;;2.10;;
25497;SDS011;13406;53.380;7.226;2024-03-02T13:34:24;6.30;;;2.10;;
25497;SDS011;13406;53.380;7.226;2024-03-02T13:36:49;7.90;;;2.53;;
25497;SDS011;13406;53.380;7.226;2024-03-02T13:39:15;6.13;;;1.73;;
25497;SDS011;13406;53.380;7.226;2024-03-02T13:41:41;5.73;;;1.47;;
25497;SDS011;13406;53.380;7.226;2024-03-02T13:44:07;5.70;;;1.70;;
25497;SDS011;13406;53.380;7.226;2024-03-02T13:46:32;7.80;;;1.77;;
25497;SDS011;13406;53.380;7.226;2024-03-02T13:48:58;6.57;;;1.67;;
25497;SDS011;13406;53.380;7.226;2024-03-02T13:51:23;5.77;;;1.70;;
25497;SDS011;13406;53.380;7.226;2024-03-02T13:53:50;5.80;;;1.80;;
25497;SDS011;13406;53.380;7.226;2024-03-02T13:56:16;6.10;;;1.97;;
25497;SDS011;13406;53.380;7.226;2024-03-02T13:58:42;6.00;;;2.20;;
25497;SDS011;13406;53.380;7.226;2024-03-02T14:01:08;5.27;;;1.77;;
25497;SDS011;13406;53.380;7.226;2024-03-02T14:03:34;6.80;;;2.07;;
25497;SDS011;13406;53.380;7.226;2024-03-02T14:06:00;12.07;;;4.30;;
25497;SDS011;13406;53.380;7.226;2024-03-02T14:08:25;9.10;;;3.43;;
25497;SDS011;13406;53.380;7.226;2024-03-02T14:10:51;5.80;;;2.03;;
25497;SDS011;13406;53.380;7.226;2024-03-02T14:13:16;7.90;;;2.70;;
25497;SDS011;13406;53.380;7.226;2024-03-02T14:15:42;6.83;;;2.20;;
25497;SDS011;13406;53.380;7.226;2024-03-02T14:18:07;6.00;;;1.90;;
25497;SDS011;13406;53.380;7.226;2024-03-02T14:20:55;5.60;;;1.90;;
25497;SDS011;13406;53.380;7.226;2024-03-02T14:23:21;5.67;;;1.70;;
25497;SDS011;13406;53.380;7.226;2024-03-02T14:25:46;8.70;;;2.30;;
25497;SDS011;13406;53.380;7.226;2024-03-02T14:28:12;5.80;;;2.43;;
25497;SDS011;13406;53.380;7.226;2024-03-02T14:30:38;6.50;;;2.10;;
25497;SDS011;13406;53.380;7.226;2024-03-02T14:33:04;6.13;;;2.00;;
25497;SDS011;13406;53.380;7.226;2024-03-02T14:35:29;7.40;;;2.33;;
25497;SDS011;13406;53.380;7.226;2024-03-02T14:37:55;8.53;;;2.53;;
25497;SDS011;13406;53.380;7.226;2024-03-02T14:40:22;6.20;;;2.57;;
25497;SDS011;13406;53.380;7.226;2024-03-02T14:42:50;6.27;;;2.53;;
25497;SDS011;13406;53.380;7.226;2024-03-02T14:45:16;6.10;;;2.10;;
25497;SDS011;13406;53.380;7.226;2024-03-02T14:47:41;6.60;;;2.67;;
25497;SDS011;13406;53.380;7.226;2024-03-02T14:50:07;6.07;;;2.60;;
25497;SDS011;13406;53.380;7.226;2024-03-02T14:52:33;6.10;;;2.57;;
25497;SDS011;13406;53.380;7.226;2024-03-02T14:54:59;5.93;;;2.43;;